X  Fechar Dados meteorológicos de METAR da aviação     LGRX Patras Araxos Agamemnon Airport
Temperatura
8°C Temperatura
4°C Ponto de orvalho
76% Umidade



Vento
11 KM/H
7 MPH
3 M/S
6 NÓS



50°
NL
Condições atuais

Parcialmente nublado Parcialmente nublado
Pressão 1012.92 (hPa) - 29.91 (inHg)
Visibilidade 6.2 (milha) - 10 (km)
Aeroporto
Código do aeroporto LGRX

Localização: Patras Araxos Agamemnon Airport
Distância: 108 (km)

Metar:
LGRX 290450Z 05006KT 9999 FEW015 08/04 Q1013

Hora: 29-11-2022 06:50 EET